sensor_id;sensor_type;location;lat;lon;timestamp;pressure;altitude;pressure_sealevel;temperature;humidity
75629;BME280;64213;46.452;16.994;2023-10-19T00:01:57;99211.75;;;10.26;83.32
75629;BME280;64213;46.452;16.994;2023-10-19T00:05:01;99203.19;;;10.22;83.52
75629;BME280;64213;46.452;16.994;2023-10-19T00:08:05;99205.72;;;10.24;83.48
75629;BME280;64213;46.452;16.994;2023-10-19T00:11:16;99213.09;;;10.32;83.33
75629;BME280;64213;46.452;16.994;2023-10-19T00:14:26;99205.88;;;10.34;83.28
75629;BME280;64213;46.452;16.994;2023-10-19T00:17:29;99207.34;;;10.38;83.27
75629;BME280;64213;46.452;16.994;2023-10-19T00:20:34;99212.50;;;10.39;83.38
75629;BME280;64213;46.452;16.994;2023-10-19T00:23:55;99207.94;;;10.41;83.01
75629;BME280;64213;46.452;16.994;2023-10-19T00:27:05;99199.88;;;10.43;83.28
75629;BME280;64213;46.452;16.994;2023-10-19T00:30:17;99197.16;;;10.44;82.92
75629;BME280;64213;46.452;16.994;2023-10-19T00:33:23;99185.72;;;10.44;83.37
75629;BME280;64213;46.452;16.994;2023-10-19T00:36:30;99175.03;;;10.45;83.22
75629;BME280;64213;46.452;16.994;2023-10-19T00:39:37;99181.16;;;10.46;83.39
75629;BME280;64213;46.452;16.994;2023-10-19T00:42:46;99178.50;;;10.46;83.29
75629;BME280;64213;46.452;16.994;2023-10-19T00:45:55;99169.72;;;10.45;83.29
75629;BME280;64213;46.452;16.994;2023-10-19T00:49:02;99165.66;;;10.41;83.58
75629;BME280;64213;46.452;16.994;2023-10-19T00:52:08;99159.75;;;10.38;83.37
75629;BME280;64213;46.452;16.994;2023-10-19T00:55:15;99153.75;;;10.36;83.99
75629;BME280;64213;46.452;16.994;2023-10-19T00:58:17;99153.88;;;10.34;84.45
75629;BME280;64213;46.452;16.994;2023-10-19T01:01:28;99143.53;;;10.31;84.48
75629;BME280;64213;46.452;16.994;2023-10-19T01:04:31;99133.81;;;10.32;84.41
75629;BME280;64213;46.452;16.994;2023-10-19T01:07:35;99124.91;;;10.33;84.51
75629;BME280;64213;46.452;16.994;2023-10-19T01:10:41;99123.22;;;10.32;84.31
75629;BME280;64213;46.452;16.994;2023-10-19T01:13:46;99118.91;;;10.31;84.48
75629;BME280;64213;46.452;16.994;2023-10-19T01:16:49;99125.03;;;10.31;84.56
75629;BME280;64213;46.452;16.994;2023-10-19T01:19:56;99117.94;;;10.32;84.62
75629;BME280;64213;46.452;16.994;2023-10-19T01:23:08;99119.75;;;10.31;84.78
75629;BME280;64213;46.452;16.994;2023-10-19T01:26:12;99127.09;;;10.28;85.32
75629;BME280;64213;46.452;16.994;2023-10-19T01:29:20;99114.47;;;10.31;85.07
75629;BME280;64213;46.452;16.994;2023-10-19T01:32:29;99117.81;;;10.33;84.98
75629;BME280;64213;46.452;16.994;2023-10-19T01:35:32;99104.59;;;10.33;84.86
75629;BME280;64213;46.452;16.994;2023-10-19T01:38:56;99104.72;;;10.32;84.73
75629;BME280;64213;46.452;16.994;2023-10-19T01:42:03;99102.91;;;10.32;85.26
75629;BME280;64213;46.452;16.994;2023-10-19T01:45:10;99092.34;;;10.32;85.75
75629;BME280;64213;46.452;16.994;2023-10-19T01:48:13;99074.81;;;10.31;85.59
75629;BME280;64213;46.452;16.994;2023-10-19T01:51:17;99070.59;;;10.29;85.61
75629;BME280;64213;46.452;16.994;2023-10-19T01:54:21;99068.28;;;10.24;86.02
75629;BME280;64213;46.452;16.994;2023-10-19T01:57:27;99072.97;;;10.20;86.36
75629;BME280;64213;46.452;16.994;2023-10-19T02:00:29;99077.41;;;10.20;86.39
75629;BME280;64213;46.452;16.994;2023-10-19T02:03:32;99071.53;;;10.16;86.86
75629;BME280;64213;46.452;16.994;2023-10-19T02:06:35;99058.69;;;10.12;87.24
75629;BME280;64213;46.452;16.994;2023-10-19T02:09:42;99065.97;;;10.08;86.88
75629;BME280;64213;46.452;16.994;2023-10-19T02:12:45;99047.03;;;10.03;87.25
75629;BME280;64213;46.452;16.994;2023-10-19T02:15:49;99056.63;;;10.04;87.71
75629;BME280;64213;46.452;16.994;2023-10-19T02:18:53;99050.00;;;9.98;87.95
75629;BME280;64213;46.452;16.994;2023-10-19T02:21:56;99054.44;;;9.98;87.51
75629;BME280;64213;46.452;16.994;2023-10-19T02:24:59;99045.69;;;9.97;87.52
75629;BME280;64213;46.452;16.994;2023-10-19T02:28:05;99042.31;;;9.95;88.31
75629;BME280;64213;46.452;16.994;2023-10-19T02:31:11;99048.47;;;9.96;88.35
75629;BME280;64213;46.452;16.994;2023-10-19T02:34:18;99038.84;;;9.95;88.03
75629;BME280;64213;46.452;16.994;2023-10-19T02:37:20;99033.56;;;9.95;87.96
75629;BME280;64213;46.452;16.994;2023-10-19T02:40:23;99034.53;;;9.94;88.49
75629;BME280;64213;46.452;16.994;2023-10-19T02:43:27;99022.53;;;9.90;88.47
75629;BME280;64213;46.452;16.994;2023-10-19T02:46:30;99014.94;;;9.85;88.76
75629;BME280;64213;46.452;16.994;2023-10-19T02:49:36;99008.47;;;9.78;89.14
75629;BME280;64213;46.452;16.994;2023-10-19T02:52:42;98999.09;;;9.74;89.45
75629;BME280;64213;46.452;16.994;2023-10-19T02:55:45;98996.19;;;9.66;89.89
75629;BME280;64213;46.452;16.994;2023-10-19T02:58:48;98992.59;;;9.55;90.34
75629;BME280;64213;46.452;16.994;2023-10-19T03:01:58;98981.75;;;9.47;90.98
75629;BME280;64213;46.452;16.994;2023-10-19T03:05:09;98977.69;;;9.43;91.15
75629;BME280;64213;46.452;16.994;2023-10-19T03:08:16;98967.59;;;9.37;91.32
75629;BME280;64213;46.452;16.994;2023-10-19T03:11:21;98963.50;;;9.33;92.13
75629;BME280;64213;46.452;16.994;2023-10-19T03:14:24;98967.22;;;9.30;91.85
75629;BME280;64213;46.452;16.994;2023-10-19T03:17:27;98966.97;;;9.22;93.08
75629;BME280;64213;46.452;16.994;2023-10-19T03:20:32;98959.41;;;9.18;92.59
75629;BME280;64213;46.452;16.994;2023-10-19T03:23:35;98965.03;;;9.13;93.62
75629;BME280;64213;46.452;16.994;2023-10-19T03:26:40;98965.97;;;9.12;93.68
75629;BME280;64213;46.452;16.994;2023-10-19T03:29:52;98963.22;;;9.14;93.66
75629;BME280;64213;46.452;16.994;2023-10-19T03:32:58;98978.09;;;9.15;93.50
75629;BME280;64213;46.452;16.994;2023-10-19T03:36:02;98950.78;;;9.16;93.91
75629;BME280;64213;46.452;16.994;2023-10-19T03:39:08;98949.06;;;9.15;94.80
75629;BME280;64213;46.452;16.994;2023-10-19T03:42:15;98958.69;;;9.16;94.04
75629;BME280;64213;46.452;16.994;2023-10-19T03:45:17;98944.75;;;9.14;94.62
75629;BME280;64213;46.452;16.994;2023-10-19T03:48:20;98945.97;;;9.10;94.64
75629;BME280;64213;46.452;16.994;2023-10-19T03:51:29;98950.25;;;9.11;94.96
75629;BME280;64213;46.452;16.994;2023-10-19T03:54:42;98933.84;;;9.07;95.64
75629;BME280;64213;46.452;16.994;2023-10-19T03:57:45;98934.66;;;9.07;95.10
75629;BME280;64213;46.452;16.994;2023-10-19T04:00:57;98938.16;;;9.08;95.33
75629;BME280;64213;46.452;16.994;2023-10-19T04:04:04;98931.28;;;9.05;95.20
75629;BME280;64213;46.452;16.994;2023-10-19T04:07:07;98938.28;;;9.06;95.38
75629;BME280;64213;46.452;16.994;2023-10-19T04:10:23;98914.75;;;9.03;95.68
75629;BME280;64213;46.452;16.994;2023-10-19T04:13:33;98903.25;;;9.04;95.38
75629;BME280;64213;46.452;16.994;2023-10-19T04:16:35;98896.91;;;9.07;95.34
75629;BME280;64213;46.452;16.994;2023-10-19T04:19:39;98884.31;;;9.11;95.77
75629;BME280;64213;46.452;16.994;2023-10-19T04:22:42;98878.81;;;9.14;96.12
75629;BME280;64213;46.452;16.994;2023-10-19T04:25:44;98868.25;;;9.14;95.72
75629;BME280;64213;46.452;16.994;2023-10-19T04:28:50;98867.78;;;9.20;95.22
75629;BME280;64213;46.452;16.994;2023-10-19T04:31:53;98861.19;;;9.25;95.35
75629;BME280;64213;46.452;16.994;2023-10-19T04:34:59;98864.44;;;9.29;95.60
75629;BME280;64213;46.452;16.994;2023-10-19T04:38:04;98865.97;;;9.31;95.58
75629;BME280;64213;46.452;16.994;2023-10-19T04:41:10;98862.03;;;9.37;95.47
75629;BME280;64213;46.452;16.994;2023-10-19T04:44:13;98843.69;;;9.36;94.98
75629;BME280;64213;46.452;16.994;2023-10-19T04:47:15;98842.84;;;9.35;95.34
75629;BME280;64213;46.452;16.994;2023-10-19T04:50:18;98845.50;;;9.35;95.74
75629;BME280;64213;46.452;16.994;2023-10-19T04:53:20;98848.13;;;9.35;95.62
75629;BME280;64213;46.452;16.994;2023-10-19T04:56:23;98844.03;;;9.31;95.62
75629;BME280;64213;46.452;16.994;2023-10-19T04:59:25;98840.69;;;9.29;95.76
75629;BME280;64213;46.452;16.994;2023-10-19T05:02:28;98835.66;;;9.26;96.25
75629;BME280;64213;46.452;16.994;2023-10-19T05:05:30;98824.59;;;9.21;96.32
75629;BME280;64213;46.452;16.994;2023-10-19T05:08:33;98821.22;;;9.19;96.78
75629;BME280;64213;46.452;16.994;2023-10-19T05:11:35;98820.63;;;9.15;96.74
75629;BME280;64213;46.452;16.994;2023-10-19T05:14:39;98817.16;;;9.15;97.41
75629;BME280;64213;46.452;16.994;2023-10-19T05:17:41;98821.75;;;9.13;97.60
75629;BME280;64213;46.452;16.994;2023-10-19T05:20:44;98822.56;;;9.13;97.20
75629;BME280;64213;46.452;16.994;2023-10-19T05:23:46;98812.84;;;9.14;97.78
75629;BME280;64213;46.452;16.994;2023-10-19T05:26:49;98816.31;;;9.14;98.17
75629;BME280;64213;46.452;16.994;2023-10-19T05:29:51;98811.19;;;9.13;97.80
75629;BME280;64213;46.452;16.994;2023-10-19T05:32:55;98821.00;;;9.22;97.76
75629;BME280;64213;46.452;16.994;2023-10-19T05:35:58;98816.44;;;9.24;97.90
75629;BME280;64213;46.452;16.994;2023-10-19T05:39:03;98825.56;;;9.31;97.25
75629;BME280;64213;46.452;16.994;2023-10-19T05:42:10;98823.41;;;9.36;97.54
75629;BME280;64213;46.452;16.994;2023-10-19T05:45:12;98826.25;;;9.44;97.64
75629;BME280;64213;46.452;16.994;2023-10-19T05:48:15;98829.16;;;9.52;96.73
75629;BME280;64213;46.452;16.994;2023-10-19T05:51:18;98826.75;;;9.61;96.79
75629;BME280;64213;46.452;16.994;2023-10-19T05:54:20;98829.00;;;9.65;96.40
75629;BME280;64213;46.452;16.994;2023-10-19T05:57:26;98822.28;;;9.72;96.32
75629;BME280;64213;46.452;16.994;2023-10-19T06:00:28;98823.34;;;9.70;96.18
75629;BME280;64213;46.452;16.994;2023-10-19T06:03:30;98824.31;;;9.69;96.41
75629;BME280;64213;46.452;16.994;2023-10-19T06:06:33;98803.59;;;9.64;96.45
75629;BME280;64213;46.452;16.994;2023-10-19T06:09:35;98812.69;;;9.71;96.67
75629;BME280;64213;46.452;16.994;2023-10-19T06:12:38;98814.84;;;9.77;96.42
75629;BME280;64213;46.452;16.994;2023-10-19T06:15:40;98816.75;;;9.87;96.10
75629;BME280;64213;46.452;16.994;2023-10-19T06:18:43;98813.72;;;9.91;96.23
75629;BME280;64213;46.452;16.994;2023-10-19T06:21:46;98799.03;;;9.98;96.13
75629;BME280;64213;46.452;16.994;2023-10-19T06:24:48;98797.59;;;10.06;96.00
75629;BME280;64213;46.452;16.994;2023-10-19T06:27:51;98802.56;;;10.20;95.33
75629;BME280;64213;46.452;16.994;2023-10-19T06:30:54;98790.75;;;10.35;94.80
75629;BME280;64213;46.452;16.994;2023-10-19T06:33:57;98793.53;;;10.55;94.00
75629;BME280;64213;46.452;16.994;2023-10-19T06:37:00;98789.34;;;10.73;93.44
75629;BME280;64213;46.452;16.994;2023-10-19T06:40:03;98783.44;;;10.90;92.66
75629;BME280;64213;46.452;16.994;2023-10-19T06:43:08;98793.69;;;11.05;92.26
75629;BME280;64213;46.452;16.994;2023-10-19T06:46:10;98795.72;;;11.22;91.58
75629;BME280;64213;46.452;16.994;2023-10-19T06:49:14;98792.19;;;11.43;90.86
75629;BME280;64213;46.452;16.994;2023-10-19T06:52:18;98779.13;;;11.70;89.84
75629;BME280;64213;46.452;16.994;2023-10-19T06:55:20;98782.84;;;12.18;88.03
75629;BME280;64213;46.452;16.994;2023-10-19T06:58:23;98767.03;;;12.74;84.81
75629;BME280;64213;46.452;16.994;2023-10-19T07:01:28;98771.97;;;13.44;83.01
75629;BME280;64213;46.452;16.994;2023-10-19T07:04:33;98762.62;;;14.03;80.90
75629;BME280;64213;46.452;16.994;2023-10-19T07:07:37;98756.84;;;13.72;81.57
75629;BME280;64213;46.452;16.994;2023-10-19T07:10:41;98763.88;;;13.63;81.86
75629;BME280;64213;46.452;16.994;2023-10-19T07:13:45;98758.63;;;13.71;81.17
75629;BME280;64213;46.452;16.994;2023-10-19T07:16:49;98760.28;;;14.18;79.24
75629;BME280;64213;46.452;16.994;2023-10-19T07:19:52;98748.53;;;14.47;78.76
75629;BME280;64213;46.452;16.994;2023-10-19T07:22:59;98741.00;;;14.86;77.76
75629;BME280;64213;46.452;16.994;2023-10-19T07:26:05;98735.31;;;15.07;76.85
75629;BME280;64213;46.452;16.994;2023-10-19T07:29:09;98739.91;;;14.71;78.10
75629;BME280;64213;46.452;16.994;2023-10-19T07:32:12;98737.69;;;14.22;80.16
75629;BME280;64213;46.452;16.994;2023-10-19T07:35:15;98737.81;;;14.56;79.53
75629;BME280;64213;46.452;16.994;2023-10-19T07:38:18;98731.56;;;15.26;76.52
75629;BME280;64213;46.452;16.994;2023-10-19T07:41:23;98730.31;;;15.54;75.20
75629;BME280;64213;46.452;16.994;2023-10-19T07:44:26;98720.59;;;15.37;76.07
75629;BME280;64213;46.452;16.994;2023-10-19T07:47:28;98734.06;;;15.78;74.68
75629;BME280;64213;46.452;16.994;2023-10-19T07:50:31;98734.84;;;15.62;74.97
75629;BME280;64213;46.452;16.994;2023-10-19T07:53:34;98736.94;;;15.50;75.17
75629;BME280;64213;46.452;16.994;2023-10-19T07:56:38;98732.06;;;15.72;74.57
75629;BME280;64213;46.452;16.994;2023-10-19T07:59:41;98736.41;;;15.81;74.09
75629;BME280;64213;46.452;16.994;2023-10-19T08:02:44;98741.69;;;15.65;74.76
75629;BME280;64213;46.452;16.994;2023-10-19T08:05:48;98738.00;;;15.57;75.21
75629;BME280;64213;46.452;16.994;2023-10-19T08:08:51;98733.41;;;15.84;74.55
75629;BME280;64213;46.452;16.994;2023-10-19T08:11:53;98727.72;;;15.71;74.78
75629;BME280;64213;46.452;16.994;2023-10-19T08:14:58;98728.34;;;15.65;75.22
75629;BME280;64213;46.452;16.994;2023-10-19T08:18:01;98730.53;;;15.69;75.39
75629;BME280;64213;46.452;16.994;2023-10-19T08:21:03;98714.50;;;15.61;75.86
75629;BME280;64213;46.452;16.994;2023-10-19T08:24:06;98712.00;;;15.59;76.28
75629;BME280;64213;46.452;16.994;2023-10-19T08:27:09;98739.81;;;15.57;76.88
75629;BME280;64213;46.452;16.994;2023-10-19T08:30:13;98710.56;;;15.73;76.39
75629;BME280;64213;46.452;16.994;2023-10-19T08:33:15;98700.56;;;15.92;75.95
75629;BME280;64213;46.452;16.994;2023-10-19T08:36:18;98699.94;;;16.06;75.75
75629;BME280;64213;46.452;16.994;2023-10-19T08:39:23;98700.44;;;16.18;75.45
75629;BME280;64213;46.452;16.994;2023-10-19T08:42:26;98709.78;;;16.22;75.52
75629;BME280;64213;46.452;16.994;2023-10-19T08:45:30;98696.59;;;16.20;75.58
75629;BME280;64213;46.452;16.994;2023-10-19T08:48:35;98702.59;;;16.14;75.85
75629;BME280;64213;46.452;16.994;2023-10-19T08:51:39;98680.75;;;16.11;76.01
75629;BME280;64213;46.452;16.994;2023-10-19T08:54:42;98685.25;;;16.26;75.54
75629;BME280;64213;46.452;16.994;2023-10-19T08:57:47;98687.09;;;16.34;75.42
75629;BME280;64213;46.452;16.994;2023-10-19T09:00:51;98703.25;;;16.41;74.99
75629;BME280;64213;46.452;16.994;2023-10-19T09:03:58;98696.19;;;16.81;74.18
75629;BME280;64213;46.452;16.994;2023-10-19T09:07:02;98685.69;;;16.79;74.20
75629;BME280;64213;46.452;16.994;2023-10-19T09:10:10;98688.34;;;16.87;73.93
75629;BME280;64213;46.452;16.994;2023-10-19T09:13:17;98694.22;;;16.58;74.79
75629;BME280;64213;46.452;16.994;2023-10-19T09:16:25;98697.59;;;16.27;76.25
75629;BME280;64213;46.452;16.994;2023-10-19T09:19:41;98697.09;;;16.24;76.62
75629;BME280;64213;46.452;16.994;2023-10-19T09:22:44;98689.22;;;16.55;75.93
75629;BME280;64213;46.452;16.994;2023-10-19T09:25:50;98687.84;;;16.92;74.44
75629;BME280;64213;46.452;16.994;2023-10-19T09:28:55;98680.03;;;17.22;73.62
75629;BME280;64213;46.452;16.994;2023-10-19T09:31:58;98686.00;;;17.55;72.88
75629;BME280;64213;46.452;16.994;2023-10-19T09:35:06;98684.69;;;17.90;71.57
75629;BME280;64213;46.452;16.994;2023-10-19T09:38:11;98678.38;;;18.21;70.99
75629;BME280;64213;46.452;16.994;2023-10-19T09:41:16;98690.13;;;18.20;70.40
75629;BME280;64213;46.452;16.994;2023-10-19T09:44:22;98669.69;;;18.42;70.39
75629;BME280;64213;46.452;16.994;2023-10-19T09:47:38;98671.41;;;18.87;68.46
75629;BME280;64213;46.452;16.994;2023-10-19T09:50:53;98673.91;;;19.40;66.97
75629;BME280;64213;46.452;16.994;2023-10-19T09:54:17;98665.78;;;19.33;67.05
75629;BME280;64213;46.452;16.994;2023-10-19T09:57:31;98665.94;;;19.83;65.53
75629;BME280;64213;46.452;16.994;2023-10-19T10:00:36;98657.84;;;20.26;64.57
75629;BME280;64213;46.452;16.994;2023-10-19T10:03:47;98662.34;;;20.18;64.48
75629;BME280;64213;46.452;16.994;2023-10-19T10:09:52;98659.47;;;20.20;64.76
75629;BME280;64213;46.452;16.994;2023-10-19T10:16:28;98649.00;;;20.04;65.09
75629;BME280;64213;46.452;16.994;2023-10-19T10:19:31;98636.81;;;20.01;65.01
75629;BME280;64213;46.452;16.994;2023-10-19T10:22:34;98629.66;;;19.65;66.38
75629;BME280;64213;46.452;16.994;2023-10-19T10:25:36;98622.97;;;19.76;66.03
75629;BME280;64213;46.452;16.994;2023-10-19T10:28:41;98629.91;;;19.92;65.57
75629;BME280;64213;46.452;16.994;2023-10-19T10:31:48;98630.41;;;20.02;64.93
75629;BME280;64213;46.452;16.994;2023-10-19T10:34:50;98632.09;;;19.82;65.99
75629;BME280;64213;46.452;16.994;2023-10-19T10:37:54;98638.28;;;19.82;66.19
75629;BME280;64213;46.452;16.994;2023-10-19T10:40:57;98631.66;;;20.56;64.15
75629;BME280;64213;46.452;16.994;2023-10-19T10:44:00;98623.06;;;21.22;62.10
75629;BME280;64213;46.452;16.994;2023-10-19T10:47:02;98619.59;;;21.34;61.80
75629;BME280;64213;46.452;16.994;2023-10-19T10:50:05;98603.41;;;22.02;59.48
75629;BME280;64213;46.452;16.994;2023-10-19T10:53:10;98599.25;;;21.87;60.07
75629;BME280;64213;46.452;16.994;2023-10-19T10:56:14;98601.28;;;21.58;61.31
75629;BME280;64213;46.452;16.994;2023-10-19T10:59:17;98596.66;;;21.32;62.20
75629;BME280;64213;46.452;16.994;2023-10-19T11:02:19;98591.72;;;20.81;63.62
75629;BME280;64213;46.452;16.994;2023-10-19T11:05:24;98585.47;;;20.39;65.08
75629;BME280;64213;46.452;16.994;2023-10-19T11:08:26;98580.19;;;19.96;66.22
75629;BME280;64213;46.452;16.994;2023-10-19T11:11:37;98580.84;;;19.77;66.68
75629;BME280;64213;46.452;16.994;2023-10-19T11:14:57;98578.50;;;19.67;67.18
75629;BME280;64213;46.452;16.994;2023-10-19T11:18:01;98573.22;;;19.59;67.32
75629;BME280;64213;46.452;16.994;2023-10-19T11:21:07;98571.50;;;19.51;67.79
75629;BME280;64213;46.452;16.994;2023-10-19T11:24:24;98563.47;;;19.51;68.08
75629;BME280;64213;46.452;16.994;2023-10-19T11:27:27;98564.56;;;19.57;68.01
75629;BME280;64213;46.452;16.994;2023-10-19T11:30:31;98563.44;;;19.66;67.76
75629;BME280;64213;46.452;16.994;2023-10-19T11:33:34;98562.00;;;19.70;67.61
75629;BME280;64213;46.452;16.994;2023-10-19T11:36:37;98544.75;;;19.79;67.45
75629;BME280;64213;46.452;16.994;2023-10-19T11:39:40;98543.41;;;20.53;65.36
75629;BME280;64213;46.452;16.994;2023-10-19T11:42:44;98544.44;;;21.06;63.75
75629;BME280;64213;46.452;16.994;2023-10-19T11:45:46;98543.19;;;21.02;63.70
75629;BME280;64213;46.452;16.994;2023-10-19T11:48:48;98548.50;;;21.70;61.77
75629;BME280;64213;46.452;16.994;2023-10-19T11:51:51;98535.00;;;22.37;59.87
75629;BME280;64213;46.452;16.994;2023-10-19T11:54:53;98522.09;;;22.52;59.36
75629;BME280;64213;46.452;16.994;2023-10-19T11:57:56;98523.03;;;21.86;60.94
75629;BME280;64213;46.452;16.994;2023-10-19T12:00:59;98524.47;;;21.35;62.70
75629;BME280;64213;46.452;16.994;2023-10-19T12:04:02;98519.88;;;21.23;62.92
75629;BME280;64213;46.452;16.994;2023-10-19T12:07:04;98519.25;;;21.34;62.72
75629;BME280;64213;46.452;16.994;2023-10-19T12:10:09;98503.78;;;21.36;62.49
75629;BME280;64213;46.452;16.994;2023-10-19T12:13:11;98495.69;;;21.76;61.75
75629;BME280;64213;46.452;16.994;2023-10-19T12:16:15;98496.12;;;21.86;61.63
75629;BME280;64213;46.452;16.994;2023-10-19T12:19:18;98489.91;;;21.66;62.30
75629;BME280;64213;46.452;16.994;2023-10-19T12:22:21;98490.94;;;21.78;61.75
75629;BME280;64213;46.452;16.994;2023-10-19T12:25:24;98487.62;;;21.36;62.75
75629;BME280;64213;46.452;16.994;2023-10-19T12:28:51;98490.66;;;20.93;63.99
75629;BME280;64213;46.452;16.994;2023-10-19T12:31:53;98481.00;;;20.57;65.20
75629;BME280;64213;46.452;16.994;2023-10-19T12:34:56;98477.13;;;20.32;66.19
75629;BME280;64213;46.452;16.994;2023-10-19T12:37:59;98465.00;;;20.36;66.35
75629;BME280;64213;46.452;16.994;2023-10-19T12:41:02;98458.75;;;20.29;66.74
75629;BME280;64213;46.452;16.994;2023-10-19T12:44:05;98458.53;;;20.24;67.26
75629;BME280;64213;46.452;16.994;2023-10-19T12:47:11;98464.28;;;20.20;67.31
75629;BME280;64213;46.452;16.994;2023-10-19T12:50:16;98464.69;;;20.17;67.60
75629;BME280;64213;46.452;16.994;2023-10-19T12:53:19;98448.94;;;20.08;67.76
75629;BME280;64213;46.452;16.994;2023-10-19T12:56:24;98445.59;;;19.99;68.44
75629;BME280;64213;46.452;16.994;2023-10-19T12:59:27;98446.81;;;19.96;68.74
75629;BME280;64213;46.452;16.994;2023-10-19T13:02:29;98438.94;;;19.88;69.51
75629;BME280;64213;46.452;16.994;2023-10-19T13:05:35;98441.75;;;19.80;69.93
75629;BME280;64213;46.452;16.994;2023-10-19T13:08:39;98434.91;;;19.78;70.46
75629;BME280;64213;46.452;16.994;2023-10-19T13:11:43;98437.22;;;19.81;70.74
75629;BME280;64213;46.452;16.994;2023-10-19T13:14:48;98428.97;;;19.82;71.26
75629;BME280;64213;46.452;16.994;2023-10-19T13:17:51;98422.41;;;19.85;71.16
75629;BME280;64213;46.452;16.994;2023-10-19T13:20:55;98425.06;;;19.85;71.20
75629;BME280;64213;46.452;16.994;2023-10-19T13:23:59;98420.09;;;19.82;71.27
75629;BME280;64213;46.452;16.994;2023-10-19T13:27:01;98429.56;;;19.78;71.90
75629;BME280;64213;46.452;16.994;2023-10-19T13:30:04;98427.47;;;19.73;72.36
75629;BME280;64213;46.452;16.994;2023-10-19T13:33:08;98423.53;;;19.69;72.67
75629;BME280;64213;46.452;16.994;2023-10-19T13:36:13;98417.31;;;19.68;72.66
75629;BME280;64213;46.452;16.994;2023-10-19T13:39:16;98408.84;;;19.65;73.04
75629;BME280;64213;46.452;16.994;2023-10-19T13:42:19;98410.88;;;19.63;73.52
75629;BME280;64213;46.452;16.994;2023-10-19T13:45:21;98409.59;;;19.59;73.89
75629;BME280;64213;46.452;16.994;2023-10-19T13:48:23;98407.75;;;19.59;74.18
75629;BME280;64213;46.452;16.994;2023-10-19T13:51:26;98415.59;;;19.61;74.38
75629;BME280;64213;46.452;16.994;2023-10-19T13:54:30;98405.69;;;19.61;74.50
75629;BME280;64213;46.452;16.994;2023-10-19T13:57:33;98408.59;;;19.60;74.66
75629;BME280;64213;46.452;16.994;2023-10-19T14:00:36;98406.91;;;19.59;74.59
75629;BME280;64213;46.452;16.994;2023-10-19T14:03:41;98415.16;;;19.57;74.62
75629;BME280;64213;46.452;16.994;2023-10-19T14:06:44;98411.66;;;19.57;74.89
75629;BME280;64213;46.452;16.994;2023-10-19T14:09:49;98409.97;;;19.56;74.84
75629;BME280;64213;46.452;16.994;2023-10-19T14:12:52;98404.44;;;19.57;74.92
75629;BME280;64213;46.452;16.994;2023-10-19T14:15:56;98397.03;;;19.59;74.81
75629;BME280;64213;46.452;16.994;2023-10-19T14:18:59;98404.44;;;19.57;74.97
75629;BME280;64213;46.452;16.994;2023-10-19T14:22:01;98393.28;;;19.54;75.15
75629;BME280;64213;46.452;16.994;2023-10-19T14:25:05;98393.84;;;19.49;75.50
75629;BME280;64213;46.452;16.994;2023-10-19T14:28:09;98379.19;;;19.45;75.92
75629;BME280;64213;46.452;16.994;2023-10-19T14:31:12;98387.81;;;19.40;75.89
75629;BME280;64213;46.452;16.994;2023-10-19T14:34:15;98379.97;;;19.39;76.39
75629;BME280;64213;46.452;16.994;2023-10-19T14:37:19;98374.56;;;19.32;77.16
75629;BME280;64213;46.452;16.994;2023-10-19T14:40:24;98378.00;;;19.26;77.35
75629;BME280;64213;46.452;16.994;2023-10-19T14:43:27;98377.37;;;19.24;77.53
75629;BME280;64213;46.452;16.994;2023-10-19T14:46:31;98371.56;;;19.20;77.50
75629;BME280;64213;46.452;16.994;2023-10-19T14:49:34;98368.44;;;19.17;77.81
75629;BME280;64213;46.452;16.994;2023-10-19T14:52:37;98367.63;;;19.16;78.39
75629;BME280;64213;46.452;16.994;2023-10-19T14:55:43;98369.03;;;19.12;78.64
75629;BME280;64213;46.452;16.994;2023-10-19T14:58:46;98363.69;;;19.12;78.88
75629;BME280;64213;46.452;16.994;2023-10-19T15:01:51;98363.25;;;19.09;79.05
75629;BME280;64213;46.452;16.994;2023-10-19T15:05:09;98356.22;;;19.08;79.30
75629;BME280;64213;46.452;16.994;2023-10-19T15:08:30;98354.78;;;19.05;79.24
75629;BME280;64213;46.452;16.994;2023-10-19T15:11:51;98352.47;;;19.02;79.13
75629;BME280;64213;46.452;16.994;2023-10-19T15:15:23;98344.19;;;18.97;79.33
75629;BME280;64213;46.452;16.994;2023-10-19T15:19:01;98346.84;;;18.97;79.57
75629;BME280;64213;46.452;16.994;2023-10-19T15:22:14;98341.06;;;18.93;79.39
75629;BME280;64213;46.452;16.994;2023-10-19T15:25:19;98340.81;;;18.88;80.01
75629;BME280;64213;46.452;16.994;2023-10-19T15:28:22;98336.84;;;18.84;80.41
75629;BME280;64213;46.452;16.994;2023-10-19T15:31:25;98346.09;;;18.81;80.53
75629;BME280;64213;46.452;16.994;2023-10-19T15:34:28;98341.50;;;18.75;81.15
75629;BME280;64213;46.452;16.994;2023-10-19T15:37:33;98341.03;;;18.72;81.40
75629;BME280;64213;46.452;16.994;2023-10-19T15:40:36;98328.25;;;18.67;81.84
75629;BME280;64213;46.452;16.994;2023-10-19T15:43:42;98324.25;;;18.63;81.90
75629;BME280;64213;46.452;16.994;2023-10-19T15:46:48;98322.81;;;18.61;82.44
75629;BME280;64213;46.452;16.994;2023-10-19T15:49:56;98329.38;;;18.58;82.63
75629;BME280;64213;46.452;16.994;2023-10-19T15:53:05;98330.78;;;18.54;82.73
75629;BME280;64213;46.452;16.994;2023-10-19T15:56:10;98324.16;;;18.50;83.09
75629;BME280;64213;46.452;16.994;2023-10-19T15:59:14;98333.78;;;18.44;83.40
75629;BME280;64213;46.452;16.994;2023-10-19T16:02:36;98329.66;;;18.42;84.33
75629;BME280;64213;46.452;16.994;2023-10-19T16:05:42;98333.69;;;18.37;84.97
75629;BME280;64213;46.452;16.994;2023-10-19T16:08:47;98333.47;;;18.32;85.13
75629;BME280;64213;46.452;16.994;2023-10-19T16:11:53;98338.38;;;18.29;85.28
75629;BME280;64213;46.452;16.994;2023-10-19T16:14:58;98333.38;;;18.26;85.18
75629;BME280;64213;46.452;16.994;2023-10-19T16:18:04;98336.25;;;18.24;85.57